PWSweather.com
Personal Weather Stations
Station Observations
KWAGIGHA17
Gig Harbor, WA 98332

Gig Harbor, WA 98332

Lat: 47.35323, Lon: -122.58817

Elevation: 318

Station Type: Davis VP2 Wireless

http://www.gigharborweather.com

Latest ConditionsUpdated 10:50:01 PM PDT Friday, May 27, 2016
Currently Today's Max Today's Min Today's Average
Temperature 51.2°F10.7°C 64.5°F18.1°C 46.3°F7.9°C 54.3°F12.4°C
Dew Point 41.7°F5.4°C 44.6°F7.0°C 38.7°F3.7°C 42.1°F5.6°C
Winds 2.3 mph SW3.7 kmh SW 10.4 mph W16.7 kmh W - 2.3 mph 3.7 kmh
Wind Gusts 8.1 mph13.0 kmh 15.0 mph24.1 kmh - -
Humidity 70% 83% 41% 65%
Pressure 30.12 in1020.0 mb 30.15 in1021.0 mb 30.10 in1019.3 mb -
Hour Temp Dew Point Humidity Winds Wind Gusts Pressure Precip Precip Rate Daily Precip Total
10:50 PM 51.2°F10.7°C 41.7°F5.4°C 70% 2.3 mph SW3.7 kmh SW 8.1 mph13.0 kmh 30.12 in1020.0 mb - 0.00 in0.0 mm 0.00 in0.0 mm
10:40 PM 51.3°F10.7°C 41.5°F5.3°C 69% 2.3 mph SW3.7 kmh SW 4.6 mph7.4 kmh 30.12 in1020.0 mb - 0.00 in0.0 mm 0.00 in0.0 mm
10:30 PM 51.7°F10.9°C 41.5°F5.3°C 68% Calm Calm 1.2 mph1.9 kmh 30.12 in1020.0 mb - 0.00 in0.0 mm 0.00 in0.0 mm
10:20 PM 52.2°F11.2°C 41.6°F5.3°C 67% 2.3 mph SW3.7 kmh SW 3.5 mph5.6 kmh 30.12 in1020.0 mb - 0.00 in0.0 mm 0.00 in0.0 mm
10:10 PM 52.3°F11.3°C 41.3°F5.2°C 66% 2.3 mph WSW3.7 kmh WSW 3.5 mph5.6 kmh 30.12 in1020.0 mb - 0.00 in0.0 mm 0.00 in0.0 mm
10:00 PM 52.9°F11.6°C 41.4°F5.2°C 65% 3.5 mph SSW5.6 kmh SSW 4.6 mph7.4 kmh 30.12 in1020.0 mb - 0.00 in0.0 mm 0.00 in0.0 mm
09:50 PM 53.1°F11.7°C 41.7°F5.4°C 65% Calm Calm 1.2 mph1.9 kmh 30.11 in1019.6 mb - 0.00 in0.0 mm 0.00 in0.0 mm
09:40 PM 53.2°F11.8°C 41.7°F5.4°C 65% Calm Calm -- 30.11 in1019.6 mb - 0.00 in0.0 mm 0.00 in0.0 mm
09:30 PM 53.3°F11.8°C 41.8°F5.4°C 65% Calm Calm 1.2 mph1.9 kmh 30.11 in1019.6 mb - 0.00 in0.0 mm 0.00 in0.0 mm
09:20 PM 53.6°F12.0°C 41.7°F5.4°C 64% 3.5 mph W5.6 kmh W 4.6 mph7.4 kmh 30.11 in1019.6 mb - 0.00 in0.0 mm 0.00 in0.0 mm
09:10 PM 53.9°F12.2°C 41.6°F5.3°C 63% Calm Calm -- 30.10 in1019.3 mb - 0.00 in0.0 mm 0.00 in0.0 mm
09:00 PM 54.3°F12.4°C 41.1°F5.1°C 61% 3.5 mph WSW5.6 kmh WSW 6.9 mph11.1 kmh 30.10 in1019.3 mb - 0.00 in0.0 mm 0.00 in0.0 mm
08:50 PM 54.7°F12.6°C 41.1°F5.1°C 60% 3.5 mph WSW5.6 kmh WSW 9.2 mph14.8 kmh 30.10 in1019.3 mb - 0.00 in0.0 mm 0.00 in0.0 mm
08:40 PM 55.0°F12.8°C 40.9°F4.9°C 59% 4.6 mph WSW7.4 kmh WSW 8.1 mph13.0 kmh 30.10 in1019.3 mb - 0.00 in0.0 mm 0.00 in0.0 mm
08:30 PM 55.2°F12.9°C 41.1°F5.1°C 59% 1.2 mph SW1.9 kmh SW 3.5 mph5.6 kmh 30.10 in1019.3 mb - 0.00 in0.0 mm 0.00 in0.0 mm
08:20 PM 55.5°F13.1°C 41.0°F5.0°C 58% Calm Calm 3.5 mph5.6 kmh 30.10 in1019.3 mb - 0.00 in0.0 mm 0.00 in0.0 mm
08:10 PM 55.8°F13.2°C 40.3°F4.6°C 56% 4.6 mph SW7.4 kmh SW 8.1 mph13.0 kmh 30.10 in1019.3 mb - 0.00 in0.0 mm 0.00 in0.0 mm
08:00 PM 56.3°F13.5°C 40.8°F4.9°C 56% 1.2 mph SW1.9 kmh SW 9.2 mph14.8 kmh 30.10 in1019.3 mb - 0.00 in0.0 mm 0.00 in0.0 mm
07:50 PM 56.8°F13.8°C 40.3°F4.6°C 54% 5.8 mph WSW9.3 kmh WSW 8.1 mph13.0 kmh 30.10 in1019.3 mb - 0.00 in0.0 mm 0.00 in0.0 mm
07:40 PM 57.3°F14.1°C 40.8°F4.9°C 54% 4.6 mph SW7.4 kmh SW 6.9 mph11.1 kmh 30.10 in1019.3 mb - 0.00 in0.0 mm 0.00 in0.0 mm
07:30 PM 57.7°F14.3°C 41.2°F5.1°C 54% 6.9 mph SSW11.1 kmh SSW 9.2 mph14.8 kmh 30.10 in1019.3 mb - 0.00 in0.0 mm 0.00 in0.0 mm
07:20 PM 57.9°F14.4°C 41.3°F5.2°C 54% 5.8 mph SSW9.3 kmh SSW 12.7 mph20.4 kmh 30.10 in1019.3 mb - 0.00 in0.0 mm 0.00 in0.0 mm
07:10 PM 58.0°F14.4°C 41.4°F5.2°C 54% 4.6 mph SW7.4 kmh SW 9.2 mph14.8 kmh 30.10 in1019.3 mb - 0.00 in0.0 mm 0.00 in0.0 mm
07:00 PM 58.1°F14.5°C 41.5°F5.3°C 54% 8.1 mph WSW13.0 kmh WSW 11.5 mph18.5 kmh 30.10 in1019.3 mb - 0.00 in0.0 mm 0.00 in0.0 mm
06:50 PM 58.2°F14.6°C 41.2°F5.1°C 53% 5.8 mph WSW9.3 kmh WSW 10.4 mph16.7 kmh 30.10 in1019.3 mb - 0.00 in0.0 mm 0.00 in0.0 mm
06:40 PM 59.4°F15.2°C 41.3°F5.2°C 51% 6.9 mph SW11.1 kmh SW 15.0 mph24.1 kmh 30.10 in1019.3 mb - 0.00 in0.0 mm 0.00 in0.0 mm
06:30 PM 59.8°F15.4°C 41.6°F5.3°C 51% 6.9 mph SW11.1 kmh SW 8.1 mph13.0 kmh 30.10 in1019.3 mb - 0.00 in0.0 mm 0.00 in0.0 mm
06:20 PM 59.9°F15.5°C 41.2°F5.1°C 50% 8.1 mph SW13.0 kmh SW 11.5 mph18.5 kmh 30.10 in1019.3 mb - 0.00 in0.0 mm 0.00 in0.0 mm
06:10 PM 59.8°F15.4°C 41.6°F5.3°C 51% 4.6 mph SW7.4 kmh SW 6.9 mph11.1 kmh 30.10 in1019.3 mb - 0.00 in0.0 mm 0.00 in0.0 mm
06:00 PM 59.4°F15.2°C 41.8°F5.4°C 52% 6.9 mph WSW11.1 kmh WSW 12.7 mph20.4 kmh 30.10 in1019.3 mb - 0.00 in0.0 mm 0.00 in0.0 mm
05:50 PM 59.0°F15.0°C 41.9°F5.5°C 53% 8.1 mph WSW13.0 kmh WSW 11.5 mph18.5 kmh 30.10 in1019.3 mb - 0.00 in0.0 mm 0.00 in0.0 mm
05:40 PM 59.3°F15.2°C 41.6°F5.3°C 52% 8.1 mph WSW13.0 kmh WSW 11.5 mph18.5 kmh 30.10 in1019.3 mb - 0.00 in0.0 mm 0.00 in0.0 mm
05:30 PM 60.0°F15.6°C 42.8°F6.0°C 53% 8.1 mph WSW13.0 kmh WSW 15.0 mph24.1 kmh 30.10 in1019.3 mb - 0.00 in0.0 mm 0.00 in0.0 mm
05:20 PM 60.1°F15.6°C 42.9°F6.1°C 53% 8.1 mph WSW13.0 kmh WSW 12.7 mph20.4 kmh 30.10 in1019.3 mb - 0.00 in0.0 mm 0.00 in0.0 mm
05:10 PM 60.2°F15.7°C 43.0°F6.1°C 53% 2.3 mph SW3.7 kmh SW 9.2 mph14.8 kmh 30.10 in1019.3 mb - 0.00 in0.0 mm 0.00 in0.0 mm
05:00 PM 60.7°F15.9°C 43.0°F6.1°C 52% 10.4 mph W16.7 kmh W 12.7 mph20.4 kmh 30.10 in1019.3 mb - 0.00 in0.0 mm 0.00 in0.0 mm
04:50 PM 61.3°F16.3°C 43.5°F6.4°C 52% 1.2 mph SW1.9 kmh SW 6.9 mph11.1 kmh 30.10 in1019.3 mb - 0.00 in0.0 mm 0.00 in0.0 mm
04:40 PM 61.0°F16.1°C 43.2°F6.2°C 52% 2.3 mph SW3.7 kmh SW 9.2 mph14.8 kmh 30.10 in1019.3 mb - 0.00 in0.0 mm 0.00 in0.0 mm
04:30 PM 61.6°F16.4°C 43.3°F6.3°C 51% 6.9 mph SW11.1 kmh SW 12.7 mph20.4 kmh 30.10 in1019.3 mb - 0.00 in0.0 mm 0.00 in0.0 mm
04:20 PM 60.9°F16.1°C 44.2°F6.8°C 54% 5.8 mph WSW9.3 kmh WSW 9.2 mph14.8 kmh 30.10 in1019.3 mb - 0.00 in0.0 mm 0.00 in0.0 mm
04:10 PM 61.5°F16.4°C 43.2°F6.2°C 51% 6.9 mph W11.1 kmh W 12.7 mph20.4 kmh 30.10 in1019.3 mb - 0.00 in0.0 mm 0.00 in0.0 mm
04:00 PM 62.9°F17.2°C 42.4°F5.8°C 47% 9.2 mph WSW14.8 kmh WSW 15.0 mph24.1 kmh 30.10 in1019.3 mb - 0.00 in0.0 mm 0.00 in0.0 mm
03:50 PM 64.1°F17.8°C 41.2°F5.1°C 43% 2.3 mph WSW3.7 kmh WSW 3.5 mph5.6 kmh 30.10 in1019.3 mb - 0.00 in0.0 mm 0.00 in0.0 mm
03:40 PM 64.5°F18.1°C 40.9°F4.9°C 42% 4.6 mph W7.4 kmh W 9.2 mph14.8 kmh 30.10 in1019.3 mb - 0.00 in0.0 mm 0.00 in0.0 mm
03:30 PM 63.6°F17.6°C 44.6°F7.0°C 50% 1.2 mph SE1.9 kmh SE 3.5 mph5.6 kmh 30.10 in1019.3 mb - 0.00 in0.0 mm 0.00 in0.0 mm
03:20 PM 62.7°F17.1°C 42.7°F5.9°C 48% 4.6 mph SSW7.4 kmh SSW 6.9 mph11.1 kmh 30.11 in1019.6 mb - 0.00 in0.0 mm 0.00 in0.0 mm
03:10 PM 62.3°F16.8°C 39.5°F4.2°C 43% 3.5 mph W5.6 kmh W 5.8 mph9.3 kmh 30.11 in1019.6 mb - 0.00 in0.0 mm 0.00 in0.0 mm
03:00 PM 63.9°F17.7°C 41.0°F5.0°C 43% 3.5 mph W5.6 kmh W 5.8 mph9.3 kmh 30.11 in1019.6 mb - 0.00 in0.0 mm 0.00 in0.0 mm
02:50 PM 64.2°F17.9°C 43.0°F6.1°C 46% 1.2 mph SW1.9 kmh SW 1.2 mph1.9 kmh 30.11 in1019.6 mb - 0.00 in0.0 mm 0.00 in0.0 mm
02:40 PM 64.1°F17.8°C 39.9°F4.4°C 41% 3.5 mph W5.6 kmh W 6.9 mph11.1 kmh 30.11 in1019.6 mb - 0.00 in0.0 mm 0.00 in0.0 mm
02:30 PM 63.3°F17.4°C 42.7°F5.9°C 47% Calm Calm 3.5 mph5.6 kmh 30.11 in1019.6 mb - 0.00 in0.0 mm 0.00 in0.0 mm
02:20 PM 63.4°F17.4°C 40.5°F4.7°C 43% 5.8 mph SE9.3 kmh SE 5.8 mph9.3 kmh 30.12 in1020.0 mb - 0.00 in0.0 mm 0.00 in0.0 mm
02:10 PM 62.4°F16.9°C 40.8°F4.9°C 45% 3.5 mph W5.6 kmh W 9.2 mph14.8 kmh 30.12 in1020.0 mb - 0.00 in0.0 mm 0.00 in0.0 mm
02:00 PM 61.6°F16.4°C 42.2°F5.7°C 49% 1.2 mph SSW1.9 kmh SSW 2.3 mph3.7 kmh 30.12 in1020.0 mb - 0.00 in0.0 mm 0.00 in0.0 mm
01:50 PM 62.1°F16.7°C 40.5°F4.7°C 45% 2.3 mph SW3.7 kmh SW 2.3 mph3.7 kmh 30.12 in1020.0 mb - 0.00 in0.0 mm 0.00 in0.0 mm
01:40 PM 61.6°F16.4°C 41.7°F5.4°C 48% 1.2 mph SSE1.9 kmh SSE -- 30.12 in1020.0 mb - 0.00 in0.0 mm 0.00 in0.0 mm
01:30 PM 61.4°F16.3°C 38.7°F3.7°C 43% 5.8 mph SW9.3 kmh SW 12.7 mph20.4 kmh 30.13 in1020.3 mb - 0.00 in0.0 mm 0.00 in0.0 mm
01:20 PM 61.5°F16.4°C 39.4°F4.1°C 44% 2.3 mph WSW3.7 kmh WSW 4.6 mph7.4 kmh 30.13 in1020.3 mb - 0.00 in0.0 mm 0.00 in0.0 mm
01:10 PM 61.2°F16.2°C 41.3°F5.2°C 48% 5.8 mph WSW9.3 kmh WSW 11.5 mph18.5 kmh 30.13 in1020.3 mb - 0.00 in0.0 mm 0.00 in0.0 mm
01:00 PM 60.5°F15.8°C 40.2°F4.6°C 47% 3.5 mph WSW5.6 kmh WSW 8.1 mph13.0 kmh 30.13 in1020.3 mb - 0.00 in0.0 mm 0.00 in0.0 mm
12:50 PM 60.3°F15.7°C 42.1°F5.6°C 51% 4.6 mph WSW7.4 kmh WSW 6.9 mph11.1 kmh 30.13 in1020.3 mb - 0.00 in0.0 mm 0.00 in0.0 mm
12:40 PM 60.0°F15.6°C 41.8°F5.4°C 51% 3.5 mph S5.6 kmh S 3.5 mph5.6 kmh 30.13 in1020.3 mb - 0.00 in0.0 mm 0.00 in0.0 mm
12:30 PM 60.1°F15.6°C 41.9°F5.5°C 51% 1.2 mph SE1.9 kmh SE 4.6 mph7.4 kmh 30.13 in1020.3 mb - 0.00 in0.0 mm 0.00 in0.0 mm
12:20 PM 60.5°F15.8°C 42.3°F5.7°C 51% Calm Calm 1.2 mph1.9 kmh 30.13 in1020.3 mb - 0.00 in0.0 mm 0.00 in0.0 mm
12:10 PM 61.1°F16.2°C 42.3°F5.7°C 50% Calm Calm -- 30.13 in1020.3 mb - 0.00 in0.0 mm 0.00 in0.0 mm
12:00 PM 61.5°F16.4°C 41.0°F5.0°C 47% 1.2 mph S1.9 kmh S 5.8 mph9.3 kmh 30.13 in1020.3 mb - 0.00 in0.0 mm 0.00 in0.0 mm
11:50 AM 62.9°F17.2°C 43.4°F6.3°C 49% Calm Calm -- 30.14 in1020.7 mb - 0.00 in0.0 mm 0.00 in0.0 mm
11:40 AM 61.7°F16.5°C 42.9°F6.1°C 50% Calm Calm -- 30.14 in1020.7 mb - 0.00 in0.0 mm 0.00 in0.0 mm
11:30 AM 60.2°F15.7°C 43.0°F6.1°C 53% Calm Calm 2.3 mph3.7 kmh 30.14 in1020.7 mb - 0.00 in0.0 mm 0.00 in0.0 mm
11:20 AM 59.4°F15.2°C 43.2°F6.2°C 55% Calm Calm 2.3 mph3.7 kmh 30.14 in1020.7 mb - 0.00 in0.0 mm 0.00 in0.0 mm
11:10 AM 58.6°F14.8°C 42.5°F5.8°C 55% 1.2 mph S1.9 kmh S 2.3 mph3.7 kmh 30.14 in1020.7 mb - 0.00 in0.0 mm 0.00 in0.0 mm
11:00 AM 58.0°F14.4°C 44.1°F6.7°C 60% Calm Calm 1.2 mph1.9 kmh 30.14 in1020.7 mb - 0.00 in0.0 mm 0.00 in0.0 mm
10:50 AM 56.8°F13.8°C 43.9°F6.6°C 62% 1.2 mph WSW1.9 kmh WSW 3.5 mph5.6 kmh 30.14 in1020.7 mb - 0.00 in0.0 mm 0.00 in0.0 mm
10:40 AM 55.8°F13.2°C 43.8°F6.6°C 64% Calm Calm 1.2 mph1.9 kmh 30.14 in1020.7 mb - 0.00 in0.0 mm 0.00 in0.0 mm
10:30 AM 54.9°F12.7°C 44.1°F6.7°C 67% Calm Calm 1.2 mph1.9 kmh 30.14 in1020.7 mb - 0.00 in0.0 mm 0.00 in0.0 mm
10:20 AM 54.6°F12.6°C 43.9°F6.6°C 67% 2.3 mph WSW3.7 kmh WSW 3.5 mph5.6 kmh 30.14 in1020.7 mb - 0.00 in0.0 mm 0.00 in0.0 mm
10:10 AM 54.0°F12.2°C 43.3°F6.3°C 67% 2.3 mph SW3.7 kmh SW 3.5 mph5.6 kmh 30.14 in1020.7 mb - 0.00 in0.0 mm 0.00 in0.0 mm
10:00 AM 52.9°F11.6°C 43.8°F6.6°C 71% 1.2 mph N1.9 kmh N 1.2 mph1.9 kmh 30.14 in1020.7 mb - 0.00 in0.0 mm 0.00 in0.0 mm
09:50 AM 52.2°F11.2°C 43.4°F6.3°C 72% 3.5 mph WSW5.6 kmh WSW 3.5 mph5.6 kmh 30.14 in1020.7 mb - 0.00 in0.0 mm 0.00 in0.0 mm
09:40 AM 51.9°F11.1°C 43.5°F6.4°C 73% Calm Calm -- 30.14 in1020.7 mb - 0.00 in0.0 mm 0.00 in0.0 mm
09:30 AM 51.8°F11.0°C 43.0°F6.1°C 72% 2.3 mph WSW3.7 kmh WSW 3.5 mph5.6 kmh 30.15 in1021.0 mb - 0.00 in0.0 mm 0.00 in0.0 mm
09:20 AM 51.5°F10.8°C 43.5°F6.4°C 74% Calm Calm 4.6 mph7.4 kmh 30.15 in1021.0 mb - 0.00 in0.0 mm 0.00 in0.0 mm
09:10 AM 51.3°F10.7°C 42.9°F6.1°C 73% 1.2 mph WSW1.9 kmh WSW 3.5 mph5.6 kmh 30.15 in1021.0 mb - 0.00 in0.0 mm 0.00 in0.0 mm
09:00 AM 51.3°F10.7°C 43.3°F6.3°C 74% 3.5 mph WSW5.6 kmh WSW 6.9 mph11.1 kmh 30.15 in1021.0 mb - 0.00 in0.0 mm 0.00 in0.0 mm
08:50 AM 50.8°F10.4°C 43.5°F6.4°C 76% Calm Calm 3.5 mph5.6 kmh 30.15 in1021.0 mb - 0.00 in0.0 mm 0.00 in0.0 mm
08:40 AM 50.3°F10.2°C 43.4°F6.3°C 77% 3.5 mph WSW5.6 kmh WSW 6.9 mph11.1 kmh 30.15 in1021.0 mb - 0.00 in0.0 mm 0.00 in0.0 mm
08:30 AM 49.8°F9.9°C 43.2°F6.2°C 78% Calm Calm 1.2 mph1.9 kmh 30.14 in1020.7 mb - 0.00 in0.0 mm 0.00 in0.0 mm
08:20 AM 49.3°F9.6°C 43.0°F6.1°C 79% Calm Calm -- 30.14 in1020.7 mb - 0.00 in0.0 mm 0.00 in0.0 mm
08:10 AM 48.8°F9.3°C 42.6°F5.9°C 79% 1.2 mph SW1.9 kmh SW 2.3 mph3.7 kmh 30.14 in1020.7 mb - 0.00 in0.0 mm 0.00 in0.0 mm
08:00 AM 48.5°F9.2°C 42.3°F5.7°C 79% 2.3 mph SW3.7 kmh SW 2.3 mph3.7 kmh 30.14 in1020.7 mb - 0.00 in0.0 mm 0.00 in0.0 mm
07:50 AM 48.1°F8.9°C 42.2°F5.7°C 80% 2.3 mph SW3.7 kmh SW 3.5 mph5.6 kmh 30.14 in1020.7 mb - 0.00 in0.0 mm 0.00 in0.0 mm
07:40 AM 47.9°F8.8°C 42.0°F5.6°C 80% 2.3 mph WSW3.7 kmh WSW 4.6 mph7.4 kmh 30.14 in1020.7 mb - 0.00 in0.0 mm 0.00 in0.0 mm
07:30 AM 47.9°F8.8°C 42.0°F5.6°C 80% 1.2 mph SW1.9 kmh SW 3.5 mph5.6 kmh 30.14 in1020.7 mb - 0.00 in0.0 mm 0.00 in0.0 mm
07:20 AM 47.7°F8.7°C 42.5°F5.8°C 82% 1.2 mph SW1.9 kmh SW 3.5 mph5.6 kmh 30.13 in1020.3 mb - 0.00 in0.0 mm 0.00 in0.0 mm
07:10 AM 47.4°F8.6°C 42.2°F5.7°C 82% Calm Calm 1.2 mph1.9 kmh 30.13 in1020.3 mb - 0.00 in0.0 mm 0.00 in0.0 mm
07:00 AM 47.1°F8.4°C 42.2°F5.7°C 83% Calm Calm -- 30.13 in1020.3 mb - 0.00 in0.0 mm 0.00 in0.0 mm
06:50 AM 46.8°F8.2°C 41.9°F5.5°C 83% Calm Calm 2.3 mph3.7 kmh 30.13 in1020.3 mb - 0.00 in0.0 mm 0.00 in0.0 mm
06:40 AM 46.6°F8.1°C 41.7°F5.4°C 83% Calm Calm -- 30.13 in1020.3 mb - 0.00 in0.0 mm 0.00 in0.0 mm
06:30 AM 46.4°F8.0°C 41.5°F5.3°C 83% Calm Calm -- 30.13 in1020.3 mb - 0.00 in0.0 mm 0.00 in0.0 mm
06:20 AM 46.3°F7.9°C 41.1°F5.1°C 82% Calm Calm -- 30.13 in1020.3 mb - 0.00 in0.0 mm 0.00 in0.0 mm
06:10 AM 46.3°F7.9°C 41.1°F5.1°C 82% Calm Calm -- 30.13 in1020.3 mb - 0.00 in0.0 mm 0.00 in0.0 mm
06:00 AM 46.3°F7.9°C 41.2°F5.1°C 82% Calm Calm -- 30.13 in1020.3 mb - 0.00 in0.0 mm 0.00 in0.0 mm
05:50 AM 46.4°F8.0°C 40.9°F4.9°C 81% Calm Calm 3.5 mph5.6 kmh 30.13 in1020.3 mb - 0.00 in0.0 mm 0.00 in0.0 mm
05:40 AM 46.5°F8.1°C 41.0°F5.0°C 81% Calm Calm -- 30.13 in1020.3 mb - 0.00 in0.0 mm 0.00 in0.0 mm
05:30 AM 46.8°F8.2°C 41.0°F5.0°C 80% Calm Calm -- 30.12 in1020.0 mb - 0.00 in0.0 mm 0.00 in0.0 mm
05:20 AM 47.0°F8.3°C 41.2°F5.1°C 80% Calm Calm -- 30.12 in1020.0 mb - 0.00 in0.0 mm 0.00 in0.0 mm
05:10 AM 47.2°F8.4°C 41.4°F5.2°C 80% Calm Calm -- 30.12 in1020.0 mb - 0.00 in0.0 mm 0.00 in0.0 mm
05:00 AM 47.4°F8.6°C 41.2°F5.1°C 79% Calm Calm 2.3 mph3.7 kmh 30.12 in1020.0 mb - 0.00 in0.0 mm 0.00 in0.0 mm
04:50 AM 47.6°F8.7°C 41.4°F5.2°C 79% Calm Calm -- 30.12 in1020.0 mb - 0.00 in0.0 mm 0.00 in0.0 mm
04:40 AM 47.9°F8.8°C 41.7°F5.4°C 79% 1.2 mph SW1.9 kmh SW 3.5 mph5.6 kmh 30.11 in1019.6 mb - 0.00 in0.0 mm 0.00 in0.0 mm
04:30 AM 48.2°F9.0°C 42.0°F5.6°C 79% Calm Calm 1.2 mph1.9 kmh 30.11 in1019.6 mb - 0.00 in0.0 mm 0.00 in0.0 mm
04:20 AM 48.5°F9.2°C 42.3°F5.7°C 79% Calm Calm -- 30.11 in1019.6 mb - 0.00 in0.0 mm 0.00 in0.0 mm
04:10 AM 48.7°F9.3°C 42.5°F5.8°C 79% Calm Calm -- 30.11 in1019.6 mb - 0.00 in0.0 mm 0.00 in0.0 mm
04:00 AM 48.8°F9.3°C 42.6°F5.9°C 79% Calm Calm 1.2 mph1.9 kmh 30.12 in1020.0 mb - 0.00 in0.0 mm 0.00 in0.0 mm
03:50 AM 48.9°F9.4°C 42.7°F5.9°C 79% 1.2 mph WSW1.9 kmh WSW 3.5 mph5.6 kmh 30.12 in1020.0 mb - 0.00 in0.0 mm 0.00 in0.0 mm
03:40 AM 49.0°F9.4°C 42.4°F5.8°C 78% 4.6 mph WSW7.4 kmh WSW 9.2 mph14.8 kmh 30.12 in1020.0 mb - 0.00 in0.0 mm 0.00 in0.0 mm
03:30 AM 49.1°F9.5°C 42.5°F5.8°C 78% 1.2 mph SSW1.9 kmh SSW 5.8 mph9.3 kmh 30.12 in1020.0 mb - 0.00 in0.0 mm 0.00 in0.0 mm
03:20 AM 49.2°F9.6°C 42.6°F5.9°C 78% Calm Calm 1.2 mph1.9 kmh 30.12 in1020.0 mb - 0.00 in0.0 mm 0.00 in0.0 mm
03:10 AM 49.2°F9.6°C 42.6°F5.9°C 78% Calm Calm -- 30.12 in1020.0 mb - 0.00 in0.0 mm 0.00 in0.0 mm
03:00 AM 49.2°F9.6°C 42.6°F5.9°C 78% Calm Calm -- 30.12 in1020.0 mb - 0.00 in0.0 mm 0.00 in0.0 mm
02:50 AM 49.2°F9.6°C 42.6°F5.9°C 78% 1.2 mph WSW1.9 kmh WSW 2.3 mph3.7 kmh 30.12 in1020.0 mb - 0.00 in0.0 mm 0.00 in0.0 mm
02:40 AM 49.2°F9.6°C 42.6°F5.9°C 78% 1.2 mph SW1.9 kmh SW 2.3 mph3.7 kmh 30.12 in1020.0 mb - 0.00 in0.0 mm 0.00 in0.0 mm
02:30 AM 49.2°F9.6°C 42.6°F5.9°C 78% 1.2 mph WNW1.9 kmh WNW 6.9 mph11.1 kmh 30.12 in1020.0 mb - 0.00 in0.0 mm 0.00 in0.0 mm
02:20 AM 49.2°F9.6°C 42.7°F5.9°C 78% 3.5 mph WSW5.6 kmh WSW 4.6 mph7.4 kmh 30.12 in1020.0 mb - 0.00 in0.0 mm 0.00 in0.0 mm
02:10 AM 49.2°F9.6°C 42.6°F5.9°C 78% 1.2 mph SW1.9 kmh SW 3.5 mph5.6 kmh 30.12 in1020.0 mb - 0.00 in0.0 mm 0.00 in0.0 mm
02:00 AM 49.2°F9.6°C 42.6°F5.9°C 78% 3.5 mph W5.6 kmh W 5.8 mph9.3 kmh 30.12 in1020.0 mb - 0.00 in0.0 mm 0.00 in0.0 mm
01:50 AM 49.1°F9.5°C 42.5°F5.8°C 78% 1.2 mph S1.9 kmh S 2.3 mph3.7 kmh 30.12 in1020.0 mb - 0.00 in0.0 mm 0.00 in0.0 mm
01:40 AM 49.0°F9.4°C 42.8°F6.0°C 79% 2.3 mph WSW3.7 kmh WSW 3.5 mph5.6 kmh 30.12 in1020.0 mb - 0.00 in0.0 mm 0.00 in0.0 mm
01:30 AM 48.9°F9.4°C 42.7°F5.9°C 79% 4.6 mph SW7.4 kmh SW 5.8 mph9.3 kmh 30.12 in1020.0 mb - 0.00 in0.0 mm 0.00 in0.0 mm
01:20 AM 48.7°F9.3°C 42.5°F5.8°C 79% 1.2 mph SSW1.9 kmh SSW 3.5 mph5.6 kmh 30.12 in1020.0 mb - 0.00 in0.0 mm 0.00 in0.0 mm
01:10 AM 48.6°F9.2°C 42.4°F5.8°C 79% 1.2 mph SSE1.9 kmh SSE 5.8 mph9.3 kmh 30.12 in1020.0 mb - 0.00 in0.0 mm 0.00 in0.0 mm
01:00 AM 48.4°F9.1°C 42.2°F5.7°C 79% Calm Calm 1.2 mph1.9 kmh 30.12 in1020.0 mb - 0.00 in0.0 mm 0.00 in0.0 mm
12:50 AM 48.5°F9.2°C 42.0°F5.6°C 78% Calm Calm 1.2 mph1.9 kmh 30.12 in1020.0 mb - 0.00 in0.0 mm 0.00 in0.0 mm
12:40 AM 48.6°F9.2°C 41.8°F5.4°C 77% 2.3 mph SSW3.7 kmh SSW 3.5 mph5.6 kmh 30.12 in1020.0 mb - 0.00 in0.0 mm 0.00 in0.0 mm
12:30 AM 48.9°F9.4°C 42.0°F5.6°C 77% Calm Calm -- 30.12 in1020.0 mb - 0.00 in0.0 mm 0.00 in0.0 mm
12:20 AM 49.0°F9.4°C 42.1°F5.6°C 77% Calm Calm 1.2 mph1.9 kmh 30.12 in1020.0 mb - 0.00 in0.0 mm 0.00 in0.0 mm
12:10 AM 49.3°F9.6°C 42.1°F5.6°C 76% 2.3 mph ESE3.7 kmh ESE 3.5 mph5.6 kmh 30.13 in1020.3 mb - 0.00 in0.0 mm 0.00 in0.0 mm
12:00 AM 49.5°F9.7°C 41.9°F5.5°C 75% 1.2 mph SSE1.9 kmh SSE 4.6 mph7.4 kmh 30.13 in1020.3 mb - 0.00 in0.0 mm 0.00 in0.0 mm